Terminal Aerodrome Forecast
Issued by NWS

Home | Current Version | Previous Version | Text Only | Print | Product List | Glossary On
Versions: 1 2 3 4 5 6 7 8 9 10 11 12
000
FTUS45 KFGZ 192320
TAFGCN
TAF
KGCN 192320Z 2000/2024 20010KT P6SM VCSH SCT100
     FM200200 VRB03KT P6SM SCT090
     FM201200 20007KT P6SM SCT080 BKN110 PROB30 2020/2024 VRB10G20KT
      6SM -TSRA BKN060CB=

USA.gov is the U.S. government's official web portal to all federal, state and local government web resources and services.